createdAt,value
2019-02-23T00:01:51.944Z,1.30
2019-02-23T00:04:24.590Z,1.43
2019-02-23T00:06:56.207Z,1.50
2019-02-23T00:09:27.445Z,1.10
2019-02-23T00:11:58.260Z,1.60
2019-02-23T00:14:28.922Z,1.40
2019-02-23T00:16:59.523Z,1.30
2019-02-23T00:19:30.554Z,1.77
2019-02-23T00:22:01.334Z,1.30
2019-02-23T00:24:32.031Z,1.40
2019-02-23T00:27:04.320Z,1.37
2019-02-23T00:29:34.867Z,1.20
2019-02-23T00:32:05.570Z,1.57
2019-02-23T00:34:36.495Z,1.30
2019-02-23T00:37:07.056Z,1.47
2019-02-23T00:39:37.766Z,1.57
2019-02-23T00:42:08.446Z,1.53
2019-02-23T00:44:39.295Z,1.50
2019-02-23T00:47:10.094Z,1.50
2019-02-23T00:49:40.643Z,1.30
2019-02-23T00:52:11.388Z,1.50
2019-02-23T00:54:43.579Z,1.17
2019-02-23T00:57:14.637Z,1.57
2019-02-23T00:59:45.688Z,1.30
2019-02-23T01:02:16.935Z,1.40
2019-02-23T01:04:47.709Z,1.50
2019-02-23T01:07:18.704Z,1.40
2019-02-23T01:09:49.340Z,1.40
2019-02-23T01:12:20.210Z,1.60
2019-02-23T01:14:50.853Z,1.40
2019-02-23T01:17:22.630Z,1.73
2019-02-23T01:19:54.367Z,1.37
2019-02-23T01:22:24.911Z,1.70
2019-02-23T01:24:55.622Z,1.73
2019-02-23T01:27:27.482Z,1.90
2019-02-23T01:29:58.932Z,1.73
2019-02-23T01:32:29.982Z,1.70
2019-02-23T01:35:00.886Z,1.70
2019-02-23T01:37:31.485Z,1.93
2019-02-23T01:40:02.886Z,2.27
2019-02-23T01:42:33.568Z,1.77
2019-02-23T01:45:04.792Z,1.73
2019-02-23T01:47:35.611Z,1.80
2019-02-23T01:50:07.675Z,1.70
2019-02-23T01:52:38.395Z,2.20
2019-02-23T01:55:11.860Z,1.80
2019-02-23T01:57:42.611Z,1.83
2019-02-23T02:00:16.326Z,1.87
2019-02-23T02:02:48.923Z,1.87
2019-02-23T02:05:20.085Z,1.90
2019-02-23T02:07:50.950Z,1.70
2019-02-23T02:10:22.022Z,2.13
2019-02-23T02:12:53.214Z,1.80
2019-02-23T02:15:24.079Z,2.10
2019-02-23T02:17:54.739Z,1.80
2019-02-23T02:20:25.250Z,2.30
2019-02-23T02:22:55.914Z,2.20
2019-02-23T02:25:26.595Z,1.90
2019-02-23T02:27:57.371Z,2.00
2019-02-23T02:30:28.229Z,2.10
2019-02-23T02:32:58.869Z,2.00
2019-02-23T02:35:29.544Z,2.33
2019-02-23T02:38:00.141Z,2.20
2019-02-23T02:40:31.236Z,2.10
2019-02-23T02:43:02.301Z,1.80
2019-02-23T02:45:33.150Z,2.10
2019-02-23T02:48:03.843Z,2.10
2019-02-23T02:50:34.927Z,2.00
2019-02-23T02:53:05.451Z,2.10
2019-02-23T02:55:36.230Z,1.97
2019-02-23T02:58:06.823Z,1.80
2019-02-23T03:00:37.474Z,2.13
2019-02-23T03:03:09.294Z,1.77
2019-02-23T03:05:40.142Z,2.20
2019-02-23T03:08:10.705Z,1.73
2019-02-23T03:10:41.558Z,1.93
2019-02-23T03:13:12.147Z,1.60
2019-02-23T03:15:42.893Z,2.07
2019-02-23T03:18:13.726Z,2.10
2019-02-23T03:20:44.511Z,1.70
2019-02-23T03:23:19.086Z,1.77
2019-02-23T03:25:50.091Z,2.13
2019-02-23T03:28:20.546Z,2.10
2019-02-23T03:30:51.154Z,2.10
2019-02-23T03:33:21.950Z,2.00
2019-02-23T03:35:52.751Z,1.80
2019-02-23T03:38:23.483Z,2.00
2019-02-23T03:40:54.403Z,1.77
2019-02-23T03:43:25.549Z,1.77
2019-02-23T03:45:56.199Z,1.80
2019-02-23T03:48:27.207Z,2.17
2019-02-23T03:50:57.876Z,1.80
2019-02-23T03:53:28.606Z,2.10
2019-02-23T03:55:59.665Z,2.07
2019-02-23T03:58:30.591Z,2.10
2019-02-23T04:01:02.713Z,2.07
2019-02-23T04:03:33.496Z,1.77
2019-02-23T04:06:04.358Z,2.23
2019-02-23T04:08:36.293Z,2.00
2019-02-23T04:11:07.459Z,2.30
2019-02-23T04:13:38.286Z,2.27
2019-02-23T04:16:09.204Z,2.83
2019-02-23T04:18:40.076Z,2.37
2019-02-23T04:21:10.854Z,2.03
2019-02-23T04:23:43.467Z,2.23
2019-02-23T04:26:14.274Z,1.93
2019-02-23T04:28:45.154Z,2.60
2019-02-23T04:31:15.729Z,2.20
2019-02-23T04:33:46.309Z,2.00
2019-02-23T04:36:17.059Z,2.20
2019-02-23T04:38:47.671Z,2.10
2019-02-23T04:41:18.505Z,2.63
2019-02-23T04:43:49.547Z,2.40
2019-02-23T04:46:21.418Z,2.40
2019-02-23T04:48:52.204Z,2.60
2019-02-23T04:51:23.112Z,2.03
2019-02-23T04:53:53.919Z,2.20
2019-02-23T04:56:24.659Z,2.37
2019-02-23T04:58:55.492Z,2.10
2019-02-23T05:01:26.206Z,2.50
2019-02-23T05:03:56.954Z,2.27
2019-02-23T05:06:27.717Z,2.20
2019-02-23T05:09:04.595Z,2.10
2019-02-23T05:11:36.011Z,2.07
2019-02-23T05:14:07.320Z,1.90
2019-02-23T05:16:39.523Z,2.40
2019-02-23T05:19:11.146Z,2.60
2019-02-23T05:21:43.481Z,2.20
2019-02-23T05:24:14.362Z,2.13
2019-02-23T05:26:45.270Z,2.00
2019-02-23T05:29:15.988Z,2.40
2019-02-23T05:31:46.876Z,1.87
2019-02-23T05:34:17.672Z,2.30
2019-02-23T05:36:48.703Z,2.13
2019-02-23T05:39:21.722Z,2.10
2019-02-23T05:41:52.451Z,2.00
2019-02-23T05:44:23.158Z,2.40
2019-02-23T05:46:54.116Z,1.90
2019-02-23T05:49:24.910Z,2.47
2019-02-23T05:51:55.991Z,2.30
2019-02-23T05:54:26.807Z,2.00
2019-02-23T05:56:57.491Z,2.27
2019-02-23T05:59:29.425Z,2.27
2019-02-23T06:02:00.336Z,2.23
2019-02-23T06:04:31.105Z,2.20
2019-02-23T06:07:01.634Z,2.07
2019-02-23T06:09:32.652Z,2.20
2019-02-23T06:12:03.944Z,2.10
2019-02-23T06:14:34.754Z,2.27
2019-02-23T06:17:05.643Z,1.97
2019-02-23T06:19:36.523Z,1.90
2019-02-23T06:22:07.314Z,2.23
2019-02-23T06:24:37.887Z,2.03
2019-02-23T06:27:08.650Z,2.20
2019-02-23T06:29:39.143Z,2.40
2019-02-23T06:32:10.059Z,2.00
2019-02-23T06:34:40.822Z,2.03
2019-02-23T06:37:11.619Z,2.00
2019-02-23T06:39:42.211Z,2.10
2019-02-23T06:42:12.906Z,2.00
2019-02-23T06:44:43.571Z,2.17
2019-02-23T06:47:14.507Z,1.97
2019-02-23T06:49:45.335Z,1.87
2019-02-23T06:52:16.147Z,2.00
2019-02-23T06:54:47.017Z,2.03
2019-02-23T06:57:18.664Z,1.80
2019-02-23T06:59:49.303Z,2.00
2019-02-23T07:02:20.114Z,2.13
2019-02-23T07:04:50.709Z,2.07
2019-02-23T07:07:21.713Z,1.73
2019-02-23T07:09:52.379Z,1.67
2019-02-23T07:12:23.087Z,1.77
2019-02-23T07:14:53.922Z,1.80
2019-02-23T07:17:24.595Z,1.60
2019-02-23T07:19:55.224Z,1.50
2019-02-23T07:22:27.110Z,1.40
2019-02-23T07:24:57.567Z,1.70
2019-02-23T07:27:28.328Z,1.57
2019-02-23T07:29:59.053Z,1.53
2019-02-23T07:32:29.682Z,1.40
2019-02-23T07:35:01.023Z,2.07
2019-02-23T07:37:31.780Z,1.50
2019-02-23T07:40:02.664Z,1.50
2019-02-23T07:42:34.188Z,1.47
2019-02-23T07:45:05.201Z,1.50
2019-02-23T07:47:35.958Z,1.80
2019-02-23T07:50:08.831Z,1.60
2019-02-23T07:52:39.593Z,1.10
2019-02-23T07:55:10.159Z,1.40
2019-02-23T07:57:41.178Z,1.50
2019-02-23T08:00:12.163Z,1.53
2019-02-23T08:02:43.221Z,1.47
2019-02-23T08:05:14.966Z,1.67
2019-02-23T08:07:45.831Z,1.60
2019-02-23T08:10:16.622Z,1.50
2019-02-23T08:12:47.828Z,1.50
2019-02-23T08:15:18.710Z,1.63
2019-02-23T08:17:49.459Z,1.60
2019-02-23T08:20:20.408Z,1.60
2019-02-23T08:22:51.529Z,1.60
2019-02-23T08:25:22.290Z,1.50
2019-02-23T08:27:52.966Z,1.47
2019-02-23T08:30:23.533Z,1.60
2019-02-23T08:32:55.090Z,1.40
2019-02-23T08:35:26.127Z,1.60
2019-02-23T08:37:57.398Z,1.53
2019-02-23T08:40:28.290Z,1.47
2019-02-23T08:42:58.959Z,1.50
2019-02-23T08:45:30.533Z,1.60
2019-02-23T08:48:01.648Z,1.67
2019-02-23T08:50:32.905Z,1.40
2019-02-23T08:53:04.662Z,1.47
2019-02-23T08:55:35.411Z,1.60
2019-02-23T08:58:06.386Z,1.43
2019-02-23T09:00:37.414Z,1.57
2019-02-23T09:03:08.194Z,1.50
2019-02-23T09:05:39.190Z,1.50
2019-02-23T09:08:10.090Z,1.20
2019-02-23T09:10:41.023Z,1.53
2019-02-23T09:13:12.586Z,1.40
2019-02-23T09:15:43.470Z,1.50
2019-02-23T09:18:14.040Z,1.40
2019-02-23T09:20:45.970Z,1.30
2019-02-23T09:23:17.228Z,1.30
2019-02-23T09:25:47.980Z,1.57
2019-02-23T09:28:19.075Z,1.23
2019-02-23T09:30:49.939Z,1.50
2019-02-23T09:33:20.762Z,1.30
2019-02-23T09:35:52.475Z,1.50
2019-02-23T09:38:23.208Z,1.47
2019-02-23T09:40:54.198Z,1.50
2019-02-23T09:43:24.849Z,1.13
2019-02-23T09:45:55.511Z,1.57
2019-02-23T09:48:26.662Z,1.30
2019-02-23T09:50:57.594Z,1.63
2019-02-23T09:53:29.594Z,1.23
2019-02-23T09:56:00.368Z,1.40
2019-02-23T09:58:31.377Z,1.27
2019-02-23T10:01:02.297Z,1.20
2019-02-23T10:03:32.915Z,1.30
2019-02-23T10:06:03.806Z,1.20
2019-02-23T10:08:34.420Z,1.50
2019-02-23T10:11:04.975Z,1.40
2019-02-23T10:13:36.573Z,1.30
2019-02-23T10:16:08.624Z,1.30
2019-02-23T10:18:39.809Z,1.30
2019-02-23T10:21:10.763Z,1.23
2019-02-23T10:23:41.474Z,1.30
2019-02-23T10:26:12.466Z,1.47
2019-02-23T10:28:44.521Z,1.50
2019-02-23T10:31:16.342Z,1.10
2019-02-23T10:33:47.975Z,1.27
2019-02-23T10:36:19.002Z,1.33
2019-02-23T10:38:49.859Z,1.63
2019-02-23T10:41:20.466Z,1.53
2019-02-23T10:43:51.307Z,1.40
2019-02-23T10:46:21.746Z,1.60
2019-02-23T10:48:52.430Z,1.50
2019-02-23T10:51:23.448Z,1.50
2019-02-23T10:53:54.153Z,1.77
2019-02-23T10:56:24.890Z,1.70
2019-02-23T10:58:55.985Z,1.60
2019-02-23T11:01:26.881Z,1.33
2019-02-23T11:03:57.686Z,1.60
2019-02-23T11:06:28.460Z,1.67
2019-02-23T11:08:58.982Z,1.67
2019-02-23T11:11:30.127Z,1.40
2019-02-23T11:14:01.106Z,1.50
2019-02-23T11:16:32.106Z,1.70
2019-02-23T11:19:02.871Z,1.80
2019-02-23T11:21:34.172Z,1.80
2019-02-23T11:24:04.978Z,1.67
2019-02-23T11:26:35.882Z,2.00
2019-02-23T11:29:06.879Z,2.07
2019-02-23T11:31:37.850Z,2.00
2019-02-23T11:34:08.450Z,2.10
2019-02-23T11:36:38.985Z,1.70
2019-02-23T11:39:09.980Z,2.17
2019-02-23T11:41:40.888Z,2.00
2019-02-23T11:44:12.050Z,2.60
2019-02-23T11:46:59.358Z,2.70
2019-02-23T11:49:16.095Z,2.23
2019-02-23T11:51:48.441Z,2.10
2019-02-23T11:54:19.323Z,1.80
2019-02-23T11:56:50.188Z,1.87
2019-02-23T11:59:20.943Z,1.80
2019-02-23T12:01:51.832Z,1.90
2019-02-23T12:04:22.555Z,1.60
2019-02-23T12:06:53.554Z,2.20
2019-02-23T12:09:24.314Z,2.10
2019-02-23T12:11:55.423Z,2.00
2019-02-23T12:14:26.186Z,2.20
2019-02-23T12:16:56.734Z,1.90
2019-02-23T12:19:28.583Z,1.90
2019-02-23T12:21:59.279Z,2.03
2019-02-23T12:24:29.843Z,1.80
2019-02-23T12:27:00.486Z,1.73
2019-02-23T12:29:31.338Z,1.80
2019-02-23T12:32:02.120Z,1.60
2019-02-23T12:34:32.858Z,1.83
2019-02-23T12:37:03.554Z,1.70
2019-02-23T12:39:34.692Z,1.60
2019-02-23T12:42:05.273Z,1.90
2019-02-23T12:44:36.438Z,1.67
2019-02-23T12:47:08.871Z,1.63
2019-02-23T12:49:41.342Z,1.63
2019-02-23T12:52:12.183Z,1.60
2019-02-23T12:54:42.952Z,1.63
2019-02-23T12:57:13.767Z,1.87
2019-02-23T12:59:44.455Z,1.70
2019-02-23T13:02:15.350Z,1.53
2019-02-23T13:04:46.273Z,1.70
2019-02-23T13:07:16.935Z,1.70
2019-02-23T13:09:50.948Z,1.63
2019-02-23T13:12:52.428Z,1.83
2019-02-23T13:15:30.150Z,1.53
2019-02-23T13:18:40.151Z,1.57
2019-02-23T13:21:51.315Z,1.90
2019-02-23T13:25:17.967Z,1.73
2019-02-23T13:28:25.370Z,1.57
2019-02-23T13:31:27.550Z,1.70
2019-02-23T13:34:50.487Z,1.60
2019-02-23T13:38:08.160Z,1.33
2019-02-23T13:41:12.786Z,1.53
2019-02-23T13:44:32.794Z,1.83
2019-02-23T13:47:26.483Z,1.60
2019-02-23T13:50:38.042Z,1.53
2019-02-23T13:53:22.519Z,1.53
2019-02-23T13:56:33.855Z,1.63
2019-02-23T13:59:34.503Z,1.60
2019-02-23T14:02:35.035Z,1.67
2019-02-23T14:05:37.224Z,1.90
2019-02-23T14:08:41.944Z,1.70
2019-02-23T14:11:35.055Z,1.97
2019-02-23T14:14:36.672Z,2.17
2019-02-23T14:17:51.471Z,1.57
2019-02-23T14:21:27.058Z,1.60
2019-02-23T14:24:34.356Z,1.40
2019-02-23T14:27:42.875Z,1.53
2019-02-23T14:30:49.012Z,1.60
2019-02-23T14:33:51.553Z,1.57
2019-02-23T14:37:00.234Z,2.00
2019-02-23T14:40:11.962Z,1.67
2019-02-23T14:43:33.295Z,1.60
2019-02-23T14:46:52.962Z,1.80
2019-02-23T14:49:59.529Z,1.60
2019-02-23T14:52:53.135Z,1.90
2019-02-23T14:56:11.486Z,1.57
2019-02-23T14:59:17.940Z,1.50
2019-02-23T15:02:17.363Z,1.73
2019-02-23T15:05:14.590Z,1.40
2019-02-23T15:08:13.044Z,1.83
2019-02-23T15:11:10.494Z,1.93
2019-02-23T15:14:36.290Z,1.80
2019-02-23T15:17:39.262Z,1.77
2019-02-23T15:21:10.023Z,1.73
2019-02-23T15:24:22.016Z,1.50
2019-02-23T15:27:30.683Z,1.73
2019-02-23T15:30:34.440Z,2.07
2019-02-23T15:33:35.062Z,1.73
2019-02-23T15:36:37.186Z,1.73
2019-02-23T15:39:58.862Z,1.70
2019-02-23T15:43:27.470Z,2.10
2019-02-23T15:46:50.152Z,1.47
2019-02-23T15:49:34.684Z,1.80
2019-02-23T15:52:07.408Z,1.80
2019-02-23T15:54:38.540Z,1.87
2019-02-23T15:57:09.145Z,1.87
2019-02-23T15:59:39.664Z,2.03
2019-02-23T16:02:11.510Z,1.90
2019-02-23T16:04:42.541Z,1.70
2019-02-23T16:07:13.432Z,1.90
2019-02-23T16:09:44.371Z,1.70
2019-02-23T16:12:15.252Z,1.90
2019-02-23T16:14:47.233Z,1.50
2019-02-23T16:17:18.036Z,1.73
2019-02-23T16:19:49.022Z,1.60
2019-02-23T16:22:21.399Z,1.70
2019-02-23T16:24:53.771Z,1.70
2019-02-23T16:27:24.974Z,1.67
2019-02-23T16:29:55.451Z,1.73
2019-02-23T16:32:26.282Z,1.70
2019-02-23T16:34:56.962Z,1.87
2019-02-23T16:37:27.989Z,1.67
2019-02-23T16:39:59.130Z,1.83
2019-02-23T16:42:29.924Z,1.73
2019-02-23T16:45:00.482Z,1.77
2019-02-23T16:47:31.718Z,1.67
2019-02-23T16:50:02.575Z,1.87
2019-02-23T16:52:33.735Z,2.23
2019-02-23T16:55:04.314Z,1.80
2019-02-23T16:57:35.304Z,1.80
2019-02-23T17:00:06.600Z,2.03
2019-02-23T17:02:38.894Z,1.67
2019-02-23T17:05:09.459Z,1.80
2019-02-23T17:07:39.911Z,1.87
2019-02-23T17:10:10.908Z,1.80
2019-02-23T17:12:41.876Z,1.80
2019-02-23T17:15:12.773Z,1.80
2019-02-23T17:17:43.638Z,1.80
2019-02-23T17:20:14.428Z,1.80
2019-02-23T17:22:44.974Z,1.80
2019-02-23T17:25:16.982Z,1.93
2019-02-23T17:27:47.786Z,2.00
2019-02-23T17:30:18.473Z,1.93
2019-02-23T17:32:49.156Z,1.97
2019-02-23T17:35:19.847Z,1.80
2019-02-23T17:37:50.685Z,2.07
2019-02-23T17:40:21.204Z,1.90
2019-02-23T17:42:52.031Z,1.80
2019-02-23T17:45:22.619Z,1.90
2019-02-23T17:47:54.190Z,2.10
2019-02-23T17:50:25.107Z,2.07
2019-02-23T17:52:55.654Z,2.10
2019-02-23T17:55:26.266Z,2.33
2019-02-23T17:57:57.246Z,2.10
2019-02-23T18:00:28.094Z,2.20
2019-02-23T18:02:58.958Z,2.00
2019-02-23T18:05:29.836Z,2.20
2019-02-23T18:08:00.558Z,2.53
2019-02-23T18:10:31.144Z,2.07
2019-02-23T18:13:02.071Z,2.00
2019-02-23T18:15:33.716Z,2.30
2019-02-23T18:18:05.122Z,2.20
2019-02-23T18:20:36.074Z,2.20
2019-02-23T18:23:06.598Z,2.07
2019-02-23T18:25:37.246Z,2.03
2019-02-23T18:28:10.046Z,1.97
2019-02-23T18:30:40.737Z,2.13
2019-02-23T18:33:11.385Z,2.07
2019-02-23T18:35:42.126Z,2.20
2019-02-23T18:38:12.909Z,2.27
2019-02-23T18:40:43.597Z,2.23
2019-02-23T18:43:14.770Z,2.27
2019-02-23T18:45:47.611Z,2.10
2019-02-23T18:48:18.404Z,2.40
2019-02-23T18:50:49.098Z,2.30
2019-02-23T18:53:20.651Z,2.27
2019-02-23T18:55:51.769Z,2.33
2019-02-23T18:58:22.520Z,2.40
2019-02-23T19:00:53.470Z,2.30
2019-02-23T19:03:24.317Z,2.30
2019-02-23T19:05:56.617Z,2.80
2019-02-23T19:08:28.334Z,2.37
2019-02-23T19:10:58.854Z,2.90
2019-02-23T19:13:29.501Z,2.67
2019-02-23T19:16:00.106Z,2.53
2019-02-23T19:18:32.326Z,2.40
2019-02-23T19:21:02.941Z,2.57
2019-02-23T19:23:36.114Z,2.70
2019-02-23T19:26:07.034Z,2.50
2019-02-23T19:28:43.062Z,2.90
2019-02-23T19:31:09.960Z,2.90
2019-02-23T19:33:40.811Z,2.93
2019-02-23T19:36:11.816Z,2.83
2019-02-23T19:38:42.538Z,3.10
2019-02-23T19:41:13.542Z,3.00
2019-02-23T19:43:44.362Z,2.83
2019-02-23T19:46:15.052Z,3.30
2019-02-23T19:48:46.011Z,3.17
2019-02-23T19:51:16.847Z,3.07
2019-02-23T19:53:47.567Z,2.67
2019-02-23T19:56:18.425Z,2.83
2019-02-23T19:58:49.772Z,3.00
2019-02-23T20:01:22.061Z,3.17
2019-02-23T20:03:52.734Z,3.47
2019-02-23T20:06:23.978Z,3.60
2019-02-23T20:08:54.888Z,3.90
2019-02-23T20:11:26.480Z,3.27
2019-02-23T20:13:57.467Z,3.30
2019-02-23T20:16:28.310Z,3.40
2019-02-23T20:18:59.132Z,3.43
2019-02-23T20:21:29.890Z,3.40
2019-02-23T20:24:00.706Z,3.57
2019-02-23T20:26:31.667Z,3.40
2019-02-23T20:29:02.865Z,3.47
2019-02-23T20:31:33.754Z,3.53
2019-02-23T20:34:04.775Z,3.63
2019-02-23T20:36:36.055Z,3.80
2019-02-23T20:39:06.666Z,3.73
2019-02-23T20:41:40.375Z,3.93
2019-02-23T20:44:11.574Z,3.50
2019-02-23T20:46:42.375Z,3.73
2019-02-23T20:49:12.967Z,3.40
2019-02-23T20:51:43.618Z,3.57
2019-02-23T20:54:15.344Z,4.20
2019-02-23T20:56:47.822Z,3.47
2019-02-23T20:59:18.853Z,3.60
2019-02-23T21:01:49.430Z,3.80
2019-02-23T21:04:20.505Z,3.70
2019-02-23T21:06:52.656Z,3.67
2019-02-23T21:09:26.477Z,3.50
2019-02-23T21:11:57.893Z,3.80
2019-02-23T21:14:28.498Z,4.03
2019-02-23T21:16:59.588Z,3.70
2019-02-23T21:19:30.634Z,3.80
2019-02-23T21:22:01.816Z,3.90
2019-02-23T21:24:35.960Z,3.90
2019-02-23T21:27:12.809Z,3.97
2019-02-23T21:29:39.254Z,4.57
2019-02-23T21:32:10.351Z,4.57
2019-02-23T21:34:41.150Z,4.10
2019-02-23T21:37:11.987Z,3.97
2019-02-23T21:39:42.755Z,4.30
2019-02-23T21:42:13.397Z,4.60
2019-02-23T21:44:44.221Z,4.40
2019-02-23T21:47:14.942Z,4.80
2019-02-23T21:49:46.051Z,4.37
2019-02-23T21:52:16.835Z,4.07
2019-02-23T21:54:48.182Z,3.90
2019-02-23T21:57:22.281Z,4.23
2019-02-23T21:59:51.237Z,4.37
2019-02-23T22:02:21.756Z,4.13
2019-02-23T22:04:52.508Z,4.87
2019-02-23T22:07:23.577Z,4.13
2019-02-23T22:09:54.590Z,4.23
2019-02-23T22:12:25.384Z,4.33
2019-02-23T22:14:57.342Z,4.33
2019-02-23T22:17:28.153Z,4.40
2019-02-23T22:19:59.300Z,4.37
2019-02-23T22:22:30.138Z,4.70
2019-02-23T22:25:00.810Z,4.73
2019-02-23T22:27:31.746Z,4.87
2019-02-23T22:30:02.575Z,4.60
2019-02-23T22:32:33.419Z,4.37
2019-02-23T22:35:06.498Z,4.30
2019-02-23T22:37:37.306Z,4.57
2019-02-23T22:40:08.263Z,4.57
2019-02-23T22:42:38.966Z,4.57
2019-02-23T22:45:09.934Z,4.63
2019-02-23T22:47:40.710Z,4.67
2019-02-23T22:50:11.582Z,5.20
2019-02-23T22:52:42.398Z,4.60
2019-02-23T22:55:13.536Z,5.10
2019-02-23T22:57:44.151Z,4.50
2019-02-23T23:00:17.721Z,4.70
2019-02-23T23:02:49.838Z,4.70
2019-02-23T23:05:20.814Z,4.67
2019-02-23T23:07:51.511Z,4.80
2019-02-23T23:10:22.258Z,4.40
2019-02-23T23:12:52.883Z,4.40
2019-02-23T23:15:23.587Z,4.90
2019-02-23T23:17:54.114Z,5.03
2019-02-23T23:20:24.902Z,4.47
2019-02-23T23:22:55.448Z,4.57
2019-02-23T23:25:26.082Z,4.70
2019-02-23T23:27:56.586Z,5.03
2019-02-23T23:30:27.326Z,5.07
2019-02-23T23:32:58.529Z,4.83
2019-02-23T23:35:29.326Z,4.70
2019-02-23T23:37:59.891Z,4.60
2019-02-23T23:40:31.986Z,5.00
2019-02-23T23:43:02.863Z,4.63
2019-02-23T23:45:33.539Z,4.57
2019-02-23T23:48:04.462Z,4.70
2019-02-23T23:50:35.320Z,4.90
2019-02-23T23:53:06.733Z,5.40
2019-02-23T23:55:37.843Z,4.93
2019-02-23T23:58:08.708Z,4.90
